sensor_id;sensor_type;location;lat;lon;timestamp;pressure;altitude;pressure_sealevel;temperature;humidity
81057;BME280;70563;50.084;14.468;2023-08-24T00:00:40;98959.28;;;18.53;68.14
81057;BME280;70563;50.084;14.468;2023-08-24T00:03:06;98964.47;;;18.48;67.17
81057;BME280;70563;50.084;14.468;2023-08-24T00:05:38;98957.63;;;18.40;67.98
81057;BME280;70563;50.084;14.468;2023-08-24T00:08:07;98958.31;;;18.36;68.67
81057;BME280;70563;50.084;14.468;2023-08-24T00:10:37;98961.66;;;18.31;67.97
81057;BME280;70563;50.084;14.468;2023-08-24T00:13:05;98968.50;;;18.27;69.56
81057;BME280;70563;50.084;14.468;2023-08-24T00:15:30;98962.53;;;18.25;69.07
81057;BME280;70563;50.084;14.468;2023-08-24T00:17:56;98965.00;;;18.26;69.32
81057;BME280;70563;50.084;14.468;2023-08-24T00:20:22;98971.16;;;18.27;69.14
81057;BME280;70563;50.084;14.468;2023-08-24T00:22:48;98960.81;;;18.30;69.37
81057;BME280;70563;50.084;14.468;2023-08-24T00:25:13;98958.81;;;18.26;69.51
81057;BME280;70563;50.084;14.468;2023-08-24T00:27:40;98952.22;;;18.28;68.35
81057;BME280;70563;50.084;14.468;2023-08-24T00:30:07;98951.03;;;18.24;68.71
81057;BME280;70563;50.084;14.468;2023-08-24T00:32:33;98951.50;;;18.21;69.30
81057;BME280;70563;50.084;14.468;2023-08-24T00:35:03;98951.72;;;18.20;69.23
81057;BME280;70563;50.084;14.468;2023-08-24T00:37:30;98952.91;;;18.24;69.05
81057;BME280;70563;50.084;14.468;2023-08-24T00:39:55;98953.66;;;18.13;69.52
81057;BME280;70563;50.084;14.468;2023-08-24T00:42:21;98950.47;;;18.04;69.95
81057;BME280;70563;50.084;14.468;2023-08-24T00:44:48;98964.88;;;18.03;70.09
81057;BME280;70563;50.084;14.468;2023-08-24T00:47:13;98961.03;;;17.99;70.44
81057;BME280;70563;50.084;14.468;2023-08-24T00:49:39;98957.03;;;17.90;70.35
81057;BME280;70563;50.084;14.468;2023-08-24T00:52:04;98947.97;;;17.91;70.67
81057;BME280;70563;50.084;14.468;2023-08-24T00:54:30;98959.03;;;17.94;70.69
81057;BME280;70563;50.084;14.468;2023-08-24T00:56:55;98955.78;;;17.92;70.74
81057;BME280;70563;50.084;14.468;2023-08-24T00:59:21;98956.47;;;17.88;71.41
81057;BME280;70563;50.084;14.468;2023-08-24T01:01:47;98953.63;;;17.83;71.43
81057;BME280;70563;50.084;14.468;2023-08-24T01:04:12;98958.63;;;17.79;72.34
81057;BME280;70563;50.084;14.468;2023-08-24T01:06:38;98950.00;;;17.77;72.35
81057;BME280;70563;50.084;14.468;2023-08-24T01:09:03;98948.13;;;17.77;72.61
81057;BME280;70563;50.084;14.468;2023-08-24T01:11:48;98949.56;;;17.80;72.35
81057;BME280;70563;50.084;14.468;2023-08-24T01:14:41;98944.50;;;17.90;71.47
81057;BME280;70563;50.084;14.468;2023-08-24T01:17:12;98949.19;;;17.76;72.69
81057;BME280;70563;50.084;14.468;2023-08-24T01:19:43;98943.88;;;17.70;72.39
81057;BME280;70563;50.084;14.468;2023-08-24T01:25:05;98951.34;;;17.61;73.38
81057;BME280;70563;50.084;14.468;2023-08-24T01:27:33;98947.69;;;17.62;74.03
81057;BME280;70563;50.084;14.468;2023-08-24T01:30:00;98947.22;;;17.65;73.84
81057;BME280;70563;50.084;14.468;2023-08-24T01:32:26;98944.63;;;17.59;73.48
81057;BME280;70563;50.084;14.468;2023-08-24T01:34:51;98958.19;;;17.57;73.81
81057;BME280;70563;50.084;14.468;2023-08-24T01:37:17;98946.16;;;17.48;74.29
81057;BME280;70563;50.084;14.468;2023-08-24T01:39:46;98950.16;;;17.39;75.10
81057;BME280;70563;50.084;14.468;2023-08-24T01:42:18;98947.72;;;17.37;75.03
81057;BME280;70563;50.084;14.468;2023-08-24T01:44:50;98941.78;;;17.35;75.29
81057;BME280;70563;50.084;14.468;2023-08-24T01:47:17;98949.59;;;17.37;75.46
81057;BME280;70563;50.084;14.468;2023-08-24T01:49:44;98942.28;;;17.25;75.65
81057;BME280;70563;50.084;14.468;2023-08-24T01:52:10;98948.28;;;17.21;76.31
81057;BME280;70563;50.084;14.468;2023-08-24T01:54:36;98946.28;;;17.16;76.49
81057;BME280;70563;50.084;14.468;2023-08-24T01:57:04;98942.72;;;17.22;76.26
81057;BME280;70563;50.084;14.468;2023-08-24T01:59:31;98939.47;;;17.20;76.20
81057;BME280;70563;50.084;14.468;2023-08-24T02:01:56;98940.06;;;17.22;76.53
81057;BME280;70563;50.084;14.468;2023-08-24T02:04:22;98933.38;;;17.13;76.48
81057;BME280;70563;50.084;14.468;2023-08-24T02:06:47;98935.84;;;17.15;76.92
81057;BME280;70563;50.084;14.468;2023-08-24T02:09:12;98924.97;;;17.10;77.44
81057;BME280;70563;50.084;14.468;2023-08-24T02:11:38;98928.13;;;17.25;76.83
81057;BME280;70563;50.084;14.468;2023-08-24T02:14:03;98933.31;;;17.20;76.57
81057;BME280;70563;50.084;14.468;2023-08-24T02:16:29;98929.31;;;17.11;77.16
81057;BME280;70563;50.084;14.468;2023-08-24T02:18:55;98934.25;;;17.07;76.85
81057;BME280;70563;50.084;14.468;2023-08-24T02:21:20;98929.44;;;16.97;78.03
81057;BME280;70563;50.084;14.468;2023-08-24T02:23:45;98928.22;;;16.93;78.09
81057;BME280;70563;50.084;14.468;2023-08-24T02:26:11;98925.75;;;16.92;78.63
81057;BME280;70563;50.084;14.468;2023-08-24T02:28:37;98924.13;;;16.91;78.37
81057;BME280;70563;50.084;14.468;2023-08-24T02:31:03;98915.09;;;16.92;78.70
81057;BME280;70563;50.084;14.468;2023-08-24T02:33:29;98928.44;;;16.92;78.54
81057;BME280;70563;50.084;14.468;2023-08-24T02:35:54;98922.00;;;16.99;78.60
81057;BME280;70563;50.084;14.468;2023-08-24T02:38:20;98921.78;;;17.01;78.72
81057;BME280;70563;50.084;14.468;2023-08-24T02:40:45;98916.25;;;17.02;78.39
81057;BME280;70563;50.084;14.468;2023-08-24T02:43:11;98921.19;;;16.99;78.74
81057;BME280;70563;50.084;14.468;2023-08-24T02:45:36;98916.28;;;16.96;78.71
81057;BME280;70563;50.084;14.468;2023-08-24T02:48:02;98915.09;;;16.92;78.71
81057;BME280;70563;50.084;14.468;2023-08-24T02:50:27;98923.56;;;16.89;78.96
81057;BME280;70563;50.084;14.468;2023-08-24T02:52:52;98919.06;;;16.83;79.32
81057;BME280;70563;50.084;14.468;2023-08-24T02:55:18;98922.78;;;16.82;79.84
81057;BME280;70563;50.084;14.468;2023-08-24T02:57:43;98923.00;;;16.80;79.69
81057;BME280;70563;50.084;14.468;2023-08-24T03:00:09;98922.44;;;16.96;78.69
81057;BME280;70563;50.084;14.468;2023-08-24T03:02:35;98921.63;;;16.96;79.00
81057;BME280;70563;50.084;14.468;2023-08-24T03:05:01;98922.50;;;16.90;78.99
81057;BME280;70563;50.084;14.468;2023-08-24T03:07:27;98918.41;;;16.87;79.33
81057;BME280;70563;50.084;14.468;2023-08-24T03:09:52;98918.22;;;16.89;79.49
81057;BME280;70563;50.084;14.468;2023-08-24T03:12:17;98921.97;;;16.81;79.85
81057;BME280;70563;50.084;14.468;2023-08-24T03:14:43;98920.53;;;16.78;80.11
81057;BME280;70563;50.084;14.468;2023-08-24T03:17:08;98919.75;;;16.71;80.40
81057;BME280;70563;50.084;14.468;2023-08-24T03:19:34;98925.72;;;16.73;80.83
81057;BME280;70563;50.084;14.468;2023-08-24T03:21:59;98921.81;;;16.76;80.99
81057;BME280;70563;50.084;14.468;2023-08-24T03:24:24;98934.75;;;16.72;81.00
81057;BME280;70563;50.084;14.468;2023-08-24T03:26:50;98933.28;;;16.70;81.18
81057;BME280;70563;50.084;14.468;2023-08-24T03:29:15;98939.50;;;16.64;81.13
81057;BME280;70563;50.084;14.468;2023-08-24T03:31:40;98938.06;;;16.61;81.27
81057;BME280;70563;50.084;14.468;2023-08-24T03:34:06;98934.16;;;16.64;81.39
81057;BME280;70563;50.084;14.468;2023-08-24T03:36:31;98934.97;;;16.64;81.06
81057;BME280;70563;50.084;14.468;2023-08-24T03:38:56;98931.28;;;16.65;81.41
81057;BME280;70563;50.084;14.468;2023-08-24T03:41:22;98929.22;;;16.67;81.08
81057;BME280;70563;50.084;14.468;2023-08-24T03:43:47;98934.16;;;16.64;80.99
81057;BME280;70563;50.084;14.468;2023-08-24T03:46:12;98935.84;;;16.58;81.44
81057;BME280;70563;50.084;14.468;2023-08-24T03:48:38;98928.88;;;16.57;81.80
81057;BME280;70563;50.084;14.468;2023-08-24T03:51:03;98934.66;;;16.54;81.70
81057;BME280;70563;50.084;14.468;2023-08-24T03:53:28;98939.59;;;16.50;81.54
81057;BME280;70563;50.084;14.468;2023-08-24T03:55:54;98938.72;;;16.56;81.78
81057;BME280;70563;50.084;14.468;2023-08-24T03:58:19;98935.06;;;16.51;81.67
81057;BME280;70563;50.084;14.468;2023-08-24T04:00:45;98942.44;;;16.49;82.20
81057;BME280;70563;50.084;14.468;2023-08-24T04:03:11;98943.66;;;16.53;82.25
81057;BME280;70563;50.084;14.468;2023-08-24T04:05:37;98943.25;;;16.56;82.27
81057;BME280;70563;50.084;14.468;2023-08-24T04:08:02;98945.03;;;16.62;81.75
81057;BME280;70563;50.084;14.468;2023-08-24T04:10:31;98956.16;;;16.52;81.82
81057;BME280;70563;50.084;14.468;2023-08-24T04:12:56;98945.31;;;16.54;82.34
81057;BME280;70563;50.084;14.468;2023-08-24T04:15:22;98943.66;;;16.53;82.38
81057;BME280;70563;50.084;14.468;2023-08-24T04:17:48;98947.09;;;16.60;81.78
81057;BME280;70563;50.084;14.468;2023-08-24T04:20:14;98946.47;;;16.65;81.68
81057;BME280;70563;50.084;14.468;2023-08-24T04:22:39;98949.94;;;16.65;81.05
81057;BME280;70563;50.084;14.468;2023-08-24T04:25:05;98957.00;;;16.53;82.23
81057;BME280;70563;50.084;14.468;2023-08-24T04:27:31;98956.09;;;16.66;80.52
81057;BME280;70563;50.084;14.468;2023-08-24T04:29:58;98953.41;;;16.72;79.03
81057;BME280;70563;50.084;14.468;2023-08-24T04:32:23;98957.44;;;16.82;78.69
81057;BME280;70563;50.084;14.468;2023-08-24T04:34:49;98950.81;;;16.91;79.88
81057;BME280;70563;50.084;14.468;2023-08-24T04:37:14;98951.97;;;17.01;79.61
81057;BME280;70563;50.084;14.468;2023-08-24T04:39:39;98954.50;;;17.15;78.03
81057;BME280;70563;50.084;14.468;2023-08-24T04:42:05;98945.38;;;17.22;76.78
81057;BME280;70563;50.084;14.468;2023-08-24T04:44:31;98944.81;;;17.20;76.41
81057;BME280;70563;50.084;14.468;2023-08-24T04:46:56;98947.78;;;17.30;76.05
81057;BME280;70563;50.084;14.468;2023-08-24T04:49:22;98958.25;;;17.32;76.80
81057;BME280;70563;50.084;14.468;2023-08-24T04:51:47;98951.50;;;17.48;76.97
81057;BME280;70563;50.084;14.468;2023-08-24T04:54:12;98951.81;;;17.58;76.85
81057;BME280;70563;50.084;14.468;2023-08-24T04:56:38;98950.50;;;17.67;76.42
81057;BME280;70563;50.084;14.468;2023-08-24T04:59:03;98952.25;;;17.73;76.74
81057;BME280;70563;50.084;14.468;2023-08-24T05:01:29;98948.94;;;17.78;76.52
81057;BME280;70563;50.084;14.468;2023-08-24T05:03:56;98950.28;;;17.87;76.07
81057;BME280;70563;50.084;14.468;2023-08-24T05:06:22;98950.94;;;18.01;75.17
81057;BME280;70563;50.084;14.468;2023-08-24T05:08:47;98957.13;;;18.13;74.75
81057;BME280;70563;50.084;14.468;2023-08-24T05:11:22;98950.91;;;18.19;74.51
81057;BME280;70563;50.084;14.468;2023-08-24T05:13:49;98960.47;;;18.27;74.00
81057;BME280;70563;50.084;14.468;2023-08-24T05:16:14;98958.56;;;18.46;73.01
81057;BME280;70563;50.084;14.468;2023-08-24T05:18:40;98957.69;;;18.64;72.14
81057;BME280;70563;50.084;14.468;2023-08-24T05:21:06;98960.72;;;18.67;71.54
81057;BME280;70563;50.084;14.468;2023-08-24T05:23:32;98948.22;;;18.79;71.51
81057;BME280;70563;50.084;14.468;2023-08-24T05:25:59;98953.81;;;18.90;70.64
81057;BME280;70563;50.084;14.468;2023-08-24T05:28:30;98947.56;;;18.96;70.50
81057;BME280;70563;50.084;14.468;2023-08-24T05:30:55;98946.97;;;19.05;70.23
81057;BME280;70563;50.084;14.468;2023-08-24T05:33:22;98946.97;;;19.17;69.02
81057;BME280;70563;50.084;14.468;2023-08-24T05:35:49;98947.91;;;19.35;66.84
81057;BME280;70563;50.084;14.468;2023-08-24T05:38:15;98956.03;;;19.51;66.43
81057;BME280;70563;50.084;14.468;2023-08-24T05:40:42;98953.94;;;19.77;65.52
81057;BME280;70563;50.084;14.468;2023-08-24T05:43:11;98952.13;;;20.35;62.81
81057;BME280;70563;50.084;14.468;2023-08-24T05:45:36;98951.50;;;21.84;57.66
81057;BME280;70563;50.084;14.468;2023-08-24T05:48:02;98946.59;;;23.06;53.66
81057;BME280;70563;50.084;14.468;2023-08-24T05:50:27;98951.66;;;23.87;50.39
81057;BME280;70563;50.084;14.468;2023-08-24T05:52:52;98948.34;;;24.48;48.48
81057;BME280;70563;50.084;14.468;2023-08-24T05:55:18;98948.94;;;25.06;46.91
81057;BME280;70563;50.084;14.468;2023-08-24T05:57:44;98943.41;;;25.83;44.92
81057;BME280;70563;50.084;14.468;2023-08-24T06:00:09;98947.41;;;26.50;43.38
81057;BME280;70563;50.084;14.468;2023-08-24T06:02:36;98949.03;;;27.19;41.21
81057;BME280;70563;50.084;14.468;2023-08-24T06:05:02;98960.41;;;27.74;39.88
81057;BME280;70563;50.084;14.468;2023-08-24T06:07:28;98961.31;;;27.89;39.63
81057;BME280;70563;50.084;14.468;2023-08-24T06:09:53;98963.38;;;27.49;40.13
81057;BME280;70563;50.084;14.468;2023-08-24T06:12:19;98963.91;;;28.42;38.30
81057;BME280;70563;50.084;14.468;2023-08-24T06:14:44;98970.69;;;29.29;36.22
81057;BME280;70563;50.084;14.468;2023-08-24T06:17:09;98959.88;;;29.10;36.47
81057;BME280;70563;50.084;14.468;2023-08-24T06:19:35;98955.94;;;29.02;36.79
81057;BME280;70563;50.084;14.468;2023-08-24T06:22:00;98953.34;;;29.71;35.04
81057;BME280;70563;50.084;14.468;2023-08-24T06:24:25;98959.00;;;30.38;34.21
81057;BME280;70563;50.084;14.468;2023-08-24T06:26:51;98956.03;;;30.85;32.89
81057;BME280;70563;50.084;14.468;2023-08-24T06:29:16;98955.50;;;31.59;31.84
81057;BME280;70563;50.084;14.468;2023-08-24T06:31:42;98961.34;;;31.75;30.78
81057;BME280;70563;50.084;14.468;2023-08-24T06:34:07;98961.13;;;31.62;31.05
81057;BME280;70563;50.084;14.468;2023-08-24T06:36:32;98956.28;;;32.08;30.66
81057;BME280;70563;50.084;14.468;2023-08-24T06:38:58;98950.59;;;31.38;31.81
81057;BME280;70563;50.084;14.468;2023-08-24T06:41:24;98951.56;;;30.89;33.26
81057;BME280;70563;50.084;14.468;2023-08-24T06:43:49;98945.25;;;30.80;33.34
81057;BME280;70563;50.084;14.468;2023-08-24T06:46:14;98953.25;;;32.09;31.48
81057;BME280;70563;50.084;14.468;2023-08-24T06:48:40;98947.56;;;33.44;29.36
81057;BME280;70563;50.084;14.468;2023-08-24T06:51:08;98945.34;;;33.67;28.56
81057;BME280;70563;50.084;14.468;2023-08-24T06:53:33;98949.44;;;32.80;29.89
81057;BME280;70563;50.084;14.468;2023-08-24T06:55:59;98958.25;;;33.11;29.51
81057;BME280;70563;50.084;14.468;2023-08-24T06:58:24;98948.41;;;33.19;28.89
81057;BME280;70563;50.084;14.468;2023-08-24T07:00:50;98940.34;;;34.29;27.46
81057;BME280;70563;50.084;14.468;2023-08-24T07:03:19;98942.94;;;34.67;26.47
81057;BME280;70563;50.084;14.468;2023-08-24T07:05:45;98948.66;;;34.32;27.08
81057;BME280;70563;50.084;14.468;2023-08-24T07:08:10;98940.94;;;34.34;26.85
81057;BME280;70563;50.084;14.468;2023-08-24T07:10:36;98943.94;;;34.20;27.45
81057;BME280;70563;50.084;14.468;2023-08-24T07:13:01;98940.31;;;35.61;25.04
81057;BME280;70563;50.084;14.468;2023-08-24T07:15:27;98940.00;;;35.63;25.09
81057;BME280;70563;50.084;14.468;2023-08-24T07:17:52;98938.47;;;35.90;24.76
81057;BME280;70563;50.084;14.468;2023-08-24T07:20:18;98943.31;;;34.99;25.58
81057;BME280;70563;50.084;14.468;2023-08-24T07:22:44;98938.13;;;34.97;25.58
81057;BME280;70563;50.084;14.468;2023-08-24T07:25:10;98941.25;;;35.78;24.82
81057;BME280;70563;50.084;14.468;2023-08-24T07:27:37;98935.63;;;36.79;23.60
81057;BME280;70563;50.084;14.468;2023-08-24T07:30:03;98937.31;;;37.12;22.90
81057;BME280;70563;50.084;14.468;2023-08-24T07:32:31;98934.09;;;36.13;24.06
81057;BME280;70563;50.084;14.468;2023-08-24T07:34:57;98935.00;;;37.30;22.54
81057;BME280;70563;50.084;14.468;2023-08-24T07:37:25;98939.38;;;37.47;22.21
81057;BME280;70563;50.084;14.468;2023-08-24T07:39:50;98944.38;;;36.69;23.36
81057;BME280;70563;50.084;14.468;2023-08-24T07:42:19;98932.28;;;37.61;22.77
81057;BME280;70563;50.084;14.468;2023-08-24T07:44:45;98940.75;;;36.93;22.90
81057;BME280;70563;50.084;14.468;2023-08-24T07:47:11;98938.69;;;36.62;23.51
81057;BME280;70563;50.084;14.468;2023-08-24T07:49:36;98935.97;;;37.06;23.36
81057;BME280;70563;50.084;14.468;2023-08-24T07:52:01;98933.22;;;38.20;21.75
81057;BME280;70563;50.084;14.468;2023-08-24T07:54:27;98935.28;;;37.88;22.08
81057;BME280;70563;50.084;14.468;2023-08-24T07:56:52;98928.78;;;37.01;23.14
81057;BME280;70563;50.084;14.468;2023-08-24T07:59:18;98927.50;;;35.90;24.54
81057;BME280;70563;50.084;14.468;2023-08-24T08:01:43;98923.81;;;37.86;22.11
81057;BME280;70563;50.084;14.468;2023-08-24T08:04:08;98921.34;;;39.17;20.67
81057;BME280;70563;50.084;14.468;2023-08-24T08:06:34;98927.41;;;40.25;19.51
81057;BME280;70563;50.084;14.468;2023-08-24T08:08:59;98922.25;;;39.97;19.24
81057;BME280;70563;50.084;14.468;2023-08-24T08:11:25;98925.66;;;40.77;18.08
81057;BME280;70563;50.084;14.468;2023-08-24T08:13:51;98929.59;;;40.12;18.96
81057;BME280;70563;50.084;14.468;2023-08-24T08:16:16;98934.00;;;41.69;17.85
81057;BME280;70563;50.084;14.468;2023-08-24T08:18:41;98935.16;;;41.65;16.97
81057;BME280;70563;50.084;14.468;2023-08-24T08:21:14;98924.13;;;40.83;18.24
81057;BME280;70563;50.084;14.468;2023-08-24T08:23:39;98923.47;;;41.93;16.97
81057;BME280;70563;50.084;14.468;2023-08-24T08:26:05;98921.00;;;41.25;17.87
81057;BME280;70563;50.084;14.468;2023-08-24T08:28:31;98915.56;;;40.28;18.84
81057;BME280;70563;50.084;14.468;2023-08-24T08:30:58;98918.00;;;41.41;17.43
81057;BME280;70563;50.084;14.468;2023-08-24T08:33:24;98914.22;;;42.40;15.82
81057;BME280;70563;50.084;14.468;2023-08-24T08:35:49;98905.25;;;42.90;15.53
81057;BME280;70563;50.084;14.468;2023-08-24T08:38:14;98906.94;;;42.07;16.57
81057;BME280;70563;50.084;14.468;2023-08-24T08:40:40;98905.16;;;40.18;18.17
81057;BME280;70563;50.084;14.468;2023-08-24T08:43:06;98907.19;;;40.21;17.73
81057;BME280;70563;50.084;14.468;2023-08-24T08:45:32;98901.78;;;40.31;17.42
81057;BME280;70563;50.084;14.468;2023-08-24T08:47:59;98912.63;;;39.60;18.18
81057;BME280;70563;50.084;14.468;2023-08-24T08:50:25;98906.25;;;40.73;16.46
81057;BME280;70563;50.084;14.468;2023-08-24T08:52:50;98911.06;;;42.42;15.35
81057;BME280;70563;50.084;14.468;2023-08-24T08:55:17;98905.31;;;43.15;14.78
81057;BME280;70563;50.084;14.468;2023-08-24T08:57:42;98912.84;;;43.71;14.56
81057;BME280;70563;50.084;14.468;2023-08-24T09:00:12;98901.38;;;45.27;12.49
81057;BME280;70563;50.084;14.468;2023-08-24T09:02:45;98916.09;;;44.68;13.52
81057;BME280;70563;50.084;14.468;2023-08-24T09:05:11;98912.59;;;44.50;12.88
81057;BME280;70563;50.084;14.468;2023-08-24T09:07:39;98908.09;;;43.18;13.61
81057;BME280;70563;50.084;14.468;2023-08-24T09:10:05;98907.59;;;42.70;14.52
81057;BME280;70563;50.084;14.468;2023-08-24T09:12:32;98901.31;;;43.30;13.56
81057;BME280;70563;50.084;14.468;2023-08-24T09:14:58;98908.75;;;44.96;11.94
81057;BME280;70563;50.084;14.468;2023-08-24T09:17:23;98896.16;;;42.93;14.08
81057;BME280;70563;50.084;14.468;2023-08-24T09:19:50;98892.78;;;45.03;11.95
81057;BME280;70563;50.084;14.468;2023-08-24T09:22:16;98890.34;;;44.46;12.36
81057;BME280;70563;50.084;14.468;2023-08-24T09:24:42;98887.31;;;45.38;11.58
81057;BME280;70563;50.084;14.468;2023-08-24T09:27:17;98885.38;;;45.35;11.74
81057;BME280;70563;50.084;14.468;2023-08-24T09:29:50;98887.31;;;44.86;12.12
81057;BME280;70563;50.084;14.468;2023-08-24T09:32:22;98884.97;;;45.33;11.92
81057;BME280;70563;50.084;14.468;2023-08-24T09:34:47;98871.78;;;44.15;12.63
81057;BME280;70563;50.084;14.468;2023-08-24T09:37:16;98867.56;;;43.71;13.05
81057;BME280;70563;50.084;14.468;2023-08-24T09:39:42;98867.97;;;44.68;12.22
81057;BME280;70563;50.084;14.468;2023-08-24T09:42:07;98862.16;;;44.37;12.60
81057;BME280;70563;50.084;14.468;2023-08-24T09:44:32;98856.25;;;44.17;12.42
81057;BME280;70563;50.084;14.468;2023-08-24T09:46:58;98847.75;;;43.26;13.44
81057;BME280;70563;50.084;14.468;2023-08-24T09:49:24;98843.72;;;45.17;11.73
81057;BME280;70563;50.084;14.468;2023-08-24T09:51:55;98843.13;;;46.42;10.74
81057;BME280;70563;50.084;14.468;2023-08-24T09:54:26;98834.22;;;47.72;10.34
81057;BME280;70563;50.084;14.468;2023-08-24T09:56:52;98828.94;;;45.99;11.28
81057;BME280;70563;50.084;14.468;2023-08-24T09:59:21;98830.78;;;45.37;11.55
81057;BME280;70563;50.084;14.468;2023-08-24T10:01:51;98824.34;;;45.47;11.69
81057;BME280;70563;50.084;14.468;2023-08-24T10:04:28;98826.78;;;45.79;11.35
81057;BME280;70563;50.084;14.468;2023-08-24T10:07:09;98813.84;;;45.59;11.61
81057;BME280;70563;50.084;14.468;2023-08-24T10:09:52;98809.47;;;45.95;11.42
81057;BME280;70563;50.084;14.468;2023-08-24T10:12:23;98811.59;;;46.42;11.16
81057;BME280;70563;50.084;14.468;2023-08-24T10:15:01;98804.16;;;45.70;11.73
81057;BME280;70563;50.084;14.468;2023-08-24T10:17:32;98801.69;;;47.38;10.23
81057;BME280;70563;50.084;14.468;2023-08-24T10:19:59;98795.84;;;47.89;10.04
81057;BME280;70563;50.084;14.468;2023-08-24T10:22:28;98783.94;;;45.97;11.58
81057;BME280;70563;50.084;14.468;2023-08-24T10:24:54;98775.69;;;46.17;11.54
81057;BME280;70563;50.084;14.468;2023-08-24T10:27:22;98771.03;;;45.42;12.11
81057;BME280;70563;50.084;14.468;2023-08-24T10:29:48;98779.34;;;43.86;13.36
81057;BME280;70563;50.084;14.468;2023-08-24T10:32:14;98784.22;;;41.44;15.18
81057;BME280;70563;50.084;14.468;2023-08-24T10:34:40;98791.00;;;42.77;14.08
81057;BME280;70563;50.084;14.468;2023-08-24T10:37:09;98791.56;;;41.84;15.15
81057;BME280;70563;50.084;14.468;2023-08-24T10:39:36;98788.25;;;42.80;14.08
81057;BME280;70563;50.084;14.468;2023-08-24T10:42:03;98786.56;;;43.62;13.56
81057;BME280;70563;50.084;14.468;2023-08-24T10:44:36;98784.84;;;45.15;11.79
81057;BME280;70563;50.084;14.468;2023-08-24T10:47:14;98770.00;;;44.80;12.46
81057;BME280;70563;50.084;14.468;2023-08-24T10:49:45;98760.25;;;41.84;14.92
81057;BME280;70563;50.084;14.468;2023-08-24T10:52:30;98765.22;;;42.87;14.68
81057;BME280;70563;50.084;14.468;2023-08-24T10:54:56;98773.75;;;43.78;14.23
81057;BME280;70563;50.084;14.468;2023-08-24T11:00:03;98764.84;;;45.23;12.79
81057;BME280;70563;50.084;14.468;2023-08-24T11:02:51;98763.97;;;45.30;12.49
81057;BME280;70563;50.084;14.468;2023-08-24T11:05:24;98760.97;;;47.37;11.01
81057;BME280;70563;50.084;14.468;2023-08-24T11:10:16;98749.28;;;47.19;10.82
81057;BME280;70563;50.084;14.468;2023-08-24T11:15:30;98759.53;;;45.70;11.55
81057;BME280;70563;50.084;14.468;2023-08-24T11:20:47;98729.91;;;46.11;11.09
81057;BME280;70563;50.084;14.468;2023-08-24T11:23:15;98731.78;;;45.60;11.48
81057;BME280;70563;50.084;14.468;2023-08-24T11:25:40;98727.34;;;44.42;12.27
81057;BME280;70563;50.084;14.468;2023-08-24T11:28:06;98731.47;;;45.85;11.22
81057;BME280;70563;50.084;14.468;2023-08-24T11:30:32;98725.97;;;45.47;11.41
81057;BME280;70563;50.084;14.468;2023-08-24T11:32:58;98737.44;;;45.87;11.18
81057;BME280;70563;50.084;14.468;2023-08-24T11:35:25;98732.38;;;47.06;9.90
81057;BME280;70563;50.084;14.468;2023-08-24T11:37:57;98723.03;;;47.92;9.67
81057;BME280;70563;50.084;14.468;2023-08-24T11:40:23;98708.75;;;47.50;9.88
81057;BME280;70563;50.084;14.468;2023-08-24T11:42:58;98705.72;;;46.31;10.35
81057;BME280;70563;50.084;14.468;2023-08-24T11:45:24;98706.16;;;45.68;11.12
81057;BME280;70563;50.084;14.468;2023-08-24T11:47:54;98701.59;;;46.12;10.79
81057;BME280;70563;50.084;14.468;2023-08-24T11:50:20;98705.97;;;46.13;10.85
81057;BME280;70563;50.084;14.468;2023-08-24T11:52:45;98709.00;;;45.34;11.19
81057;BME280;70563;50.084;14.468;2023-08-24T11:55:11;98697.16;;;46.42;10.74
81057;BME280;70563;50.084;14.468;2023-08-24T11:57:37;98689.88;;;46.48;10.41
81057;BME280;70563;50.084;14.468;2023-08-24T12:00:03;98688.31;;;44.94;11.42
81057;BME280;70563;50.084;14.468;2023-08-24T12:02:33;98680.63;;;44.15;12.78
81057;BME280;70563;50.084;14.468;2023-08-24T12:04:59;98668.84;;;46.16;10.90
81057;BME280;70563;50.084;14.468;2023-08-24T12:07:25;98681.16;;;46.89;10.44
81057;BME280;70563;50.084;14.468;2023-08-24T12:09:51;98671.03;;;45.47;11.66
81057;BME280;70563;50.084;14.468;2023-08-24T12:12:19;98663.94;;;46.24;10.86
81057;BME280;70563;50.084;14.468;2023-08-24T12:14:47;98657.34;;;45.87;11.14
81057;BME280;70563;50.084;14.468;2023-08-24T12:17:13;98652.78;;;45.39;11.34
81057;BME280;70563;50.084;14.468;2023-08-24T12:19:42;98652.06;;;46.20;10.49
81057;BME280;70563;50.084;14.468;2023-08-24T12:22:16;98652.97;;;45.55;11.21
81057;BME280;70563;50.084;14.468;2023-08-24T12:24:47;98641.97;;;43.69;12.96
81057;BME280;70563;50.084;14.468;2023-08-24T12:29:48;98634.53;;;44.59;12.21
81057;BME280;70563;50.084;14.468;2023-08-24T12:32:13;98636.69;;;40.92;15.04
81057;BME280;70563;50.084;14.468;2023-08-24T12:34:40;98636.72;;;38.99;17.09
81057;BME280;70563;50.084;14.468;2023-08-24T12:37:06;98635.09;;;40.91;15.49
81057;BME280;70563;50.084;14.468;2023-08-24T12:39:35;98638.16;;;41.48;14.77
81057;BME280;70563;50.084;14.468;2023-08-24T12:42:01;98636.72;;;42.01;14.06
81057;BME280;70563;50.084;14.468;2023-08-24T12:44:27;98641.50;;;42.11;14.21
81057;BME280;70563;50.084;14.468;2023-08-24T12:46:53;98626.16;;;41.12;15.01
81057;BME280;70563;50.084;14.468;2023-08-24T12:49:18;98616.91;;;42.59;13.32
81057;BME280;70563;50.084;14.468;2023-08-24T12:51:43;98608.88;;;43.89;12.38
81057;BME280;70563;50.084;14.468;2023-08-24T12:54:09;98603.69;;;43.94;12.68
81057;BME280;70563;50.084;14.468;2023-08-24T12:56:34;98606.56;;;43.76;12.37
81057;BME280;70563;50.084;14.468;2023-08-24T12:59:00;98601.81;;;42.75;12.90
81057;BME280;70563;50.084;14.468;2023-08-24T13:01:26;98593.94;;;42.27;13.87
81057;BME280;70563;50.084;14.468;2023-08-24T13:03:52;98597.13;;;42.15;13.63